createdAt,value
2022-08-01T00:01:38.808Z,90.50
2022-08-01T00:04:06.293Z,91.00
2022-08-01T00:06:33.639Z,91.00
2022-08-01T00:09:00.965Z,91.10
2022-08-01T00:11:28.340Z,91.30
2022-08-01T00:13:55.654Z,91.10
2022-08-01T00:16:25.994Z,91.00
2022-08-01T00:18:53.458Z,91.00
2022-08-01T00:21:20.825Z,91.30
2022-08-01T00:23:48.394Z,91.30
2022-08-01T00:26:16.053Z,91.40
2022-08-01T00:28:43.557Z,91.20
2022-08-01T00:31:10.986Z,91.30
2022-08-01T00:33:38.368Z,91.10
2022-08-01T00:36:09.804Z,91.10
2022-08-01T00:38:37.376Z,90.90
2022-08-01T00:41:04.726Z,91.00
2022-08-01T00:43:31.977Z,91.10
2022-08-01T00:45:59.333Z,91.10
2022-08-01T00:48:26.713Z,91.30
2022-08-01T00:51:05.733Z,91.40
2022-08-01T00:53:51.051Z,91.60
2022-08-01T00:56:21.645Z,91.80
2022-08-01T00:58:52.504Z,92.00
2022-08-01T01:01:21.719Z,92.50
2022-08-01T01:03:59.718Z,92.70
2022-08-01T01:06:28.971Z,93.00
2022-08-01T01:09:22.170Z,93.30
2022-08-01T01:12:49.935Z,93.60
2022-08-01T01:15:21.442Z,93.90
2022-08-01T01:18:07.103Z,94.10
2022-08-01T01:21:18.819Z,94.30
2022-08-01T01:24:11.962Z,94.10
2022-08-01T01:26:54.579Z,93.80
2022-08-01T01:29:59.375Z,94.00
2022-08-01T01:32:41.068Z,94.30
2022-08-01T01:35:32.165Z,94.50
2022-08-01T01:38:20.666Z,94.30
2022-08-01T01:40:50.091Z,94.40
2022-08-01T01:43:28.969Z,94.80
2022-08-01T01:46:14.036Z,94.70
2022-08-01T01:48:50.303Z,94.90
2022-08-01T01:51:43.480Z,95.10
2022-08-01T01:54:43.420Z,95.10
2022-08-01T01:57:12.794Z,95.20
2022-08-01T01:59:42.000Z,95.60
2022-08-01T02:02:11.358Z,95.70
2022-08-01T02:04:44.580Z,95.80
2022-08-01T02:07:17.671Z,96.00
2022-08-01T02:09:46.823Z,96.00
2022-08-01T02:12:18.460Z,95.70
2022-08-01T02:14:47.763Z,96.00
2022-08-01T02:17:19.576Z,96.20
2022-08-01T02:19:47.626Z,96.40
2022-08-01T02:22:26.806Z,96.20
2022-08-01T02:25:06.990Z,96.30
2022-08-01T02:27:48.844Z,96.30
2022-08-01T02:30:16.940Z,96.50
2022-08-01T02:32:55.134Z,96.50
2022-08-01T02:35:31.817Z,96.60
2022-08-01T02:38:01.712Z,96.40
2022-08-01T02:40:46.875Z,96.70
2022-08-01T02:43:22.430Z,96.50
2022-08-01T02:45:55.230Z,96.40
2022-08-01T02:48:51.741Z,96.60
2022-08-01T02:51:23.085Z,96.80
2022-08-01T02:53:52.943Z,96.40
2022-08-01T02:56:22.621Z,96.80
2022-08-01T02:58:54.517Z,97.00
2022-08-01T03:01:24.134Z,97.10
2022-08-01T03:04:00.527Z,96.90
2022-08-01T03:06:29.572Z,97.20
2022-08-01T03:09:03.667Z,97.30
2022-08-01T03:11:33.307Z,97.40
2022-08-01T03:14:03.730Z,97.70
2022-08-01T03:16:36.320Z,97.70
2022-08-01T03:19:05.768Z,98.10
2022-08-01T03:21:38.156Z,98.40
2022-08-01T03:24:10.896Z,98.60
2022-08-01T03:26:47.225Z,98.70
2022-08-01T03:29:18.355Z,98.90
2022-08-01T03:31:54.274Z,99.20
2022-08-01T03:34:22.680Z,99.40
2022-08-01T03:39:50.975Z,99.30
2022-08-01T03:42:38.131Z,99.60
2022-08-01T03:45:13.499Z,99.70
2022-08-01T03:47:44.992Z,99.90
2022-08-01T03:50:15.138Z,99.90
2022-08-01T03:52:53.529Z,99.30
2022-08-01T03:55:23.357Z,99.50
2022-08-01T03:57:52.557Z,99.80
2022-08-01T04:00:20.553Z,99.80
2022-08-01T04:02:49.159Z,99.90
2022-08-01T04:05:49.997Z,99.80
2022-08-01T04:08:17.376Z,99.70
2022-08-01T04:11:14.792Z,99.70
2022-08-01T04:13:45.267Z,99.70
2022-08-01T04:16:12.581Z,99.70
2022-08-01T04:18:45.159Z,99.90
2022-08-01T04:21:13.990Z,99.80
2022-08-01T04:24:14.055Z,99.80
2022-08-01T04:27:05.747Z,99.70
2022-08-01T04:30:28.396Z,99.60
2022-08-01T04:33:09.339Z,99.60
2022-08-01T04:36:03.541Z,99.90
2022-08-01T04:38:43.231Z,99.90
2022-08-01T04:41:18.660Z,99.50
2022-08-01T04:44:00.109Z,99.40
2022-08-01T04:46:30.122Z,99.40
2022-08-01T04:48:58.415Z,99.50
2022-08-01T04:51:36.471Z,99.80
2022-08-01T04:54:04.120Z,99.90
2022-08-01T04:56:31.542Z,99.90
2022-08-01T04:59:35.264Z,99.90
2022-08-01T05:02:22.807Z,99.90
2022-08-01T05:04:50.250Z,99.90
2022-08-01T05:07:25.124Z,99.90
2022-08-01T05:09:54.709Z,99.50
2022-08-01T05:12:25.283Z,99.20
2022-08-01T05:14:59.704Z,99.30
2022-08-01T05:20:20.834Z,99.20
2022-08-01T05:22:50.953Z,99.10
2022-08-01T05:28:00.538Z,99.10
2022-08-01T05:30:31.316Z,98.90
2022-08-01T05:32:58.742Z,98.30
2022-08-01T05:35:47.491Z,98.00
2022-08-01T05:38:14.920Z,98.20
2022-08-01T05:40:42.766Z,98.00
2022-08-01T05:43:10.070Z,98.00
2022-08-01T05:45:39.746Z,97.90
2022-08-01T05:48:07.223Z,97.70
2022-08-01T05:50:34.892Z,97.40
2022-08-01T05:53:02.303Z,97.40
2022-08-01T05:55:29.746Z,97.20
2022-08-01T05:57:57.081Z,96.70
2022-08-01T06:00:24.532Z,96.20
2022-08-01T06:02:52.059Z,96.00
2022-08-01T06:05:19.495Z,95.70
2022-08-01T06:07:46.899Z,95.00
2022-08-01T06:10:14.309Z,94.00
2022-08-01T06:12:41.705Z,93.40
2022-08-01T06:15:09.684Z,92.30
2022-08-01T06:17:37.110Z,91.60
2022-08-01T06:20:07.482Z,91.70
2022-08-01T06:22:35.055Z,90.80
2022-08-01T06:28:00.986Z,90.20
2022-08-01T06:30:28.573Z,88.90
2022-08-01T06:36:06.979Z,87.10
2022-08-01T06:38:34.337Z,86.00
2022-08-01T06:41:08.525Z,86.00
2022-08-01T06:43:35.923Z,86.90
2022-08-01T06:46:03.360Z,86.70
2022-08-01T06:48:30.866Z,86.20
2022-08-01T06:51:10.428Z,84.30
2022-08-01T06:53:38.758Z,83.90
2022-08-01T06:56:07.173Z,82.10
2022-08-01T06:58:35.873Z,81.60
2022-08-01T07:01:07.036Z,81.00
2022-08-01T07:03:52.962Z,80.50
2022-08-01T07:06:23.988Z,81.10
2022-08-01T07:08:51.951Z,82.90
2022-08-01T07:11:20.106Z,83.40
2022-08-01T07:13:47.714Z,83.50
2022-08-01T07:16:15.911Z,83.20
2022-08-01T07:18:43.544Z,82.40
2022-08-01T07:21:16.650Z,82.40
2022-08-01T07:23:59.084Z,82.20
2022-08-01T07:26:28.363Z,82.40
2022-08-01T07:29:21.100Z,81.80
2022-08-01T07:32:08.051Z,80.70
2022-08-01T07:34:35.926Z,80.10
2022-08-01T07:37:03.252Z,78.40
2022-08-01T07:39:30.879Z,78.30
2022-08-01T07:42:06.797Z,78.30
2022-08-01T07:44:55.867Z,78.80
2022-08-01T07:47:27.267Z,76.20
2022-08-01T07:50:01.409Z,77.40
2022-08-01T07:53:30.177Z,77.00
2022-08-01T07:55:57.764Z,77.80
2022-08-01T07:58:25.139Z,77.80
2022-08-01T08:01:23.084Z,76.70
2022-08-01T08:07:06.994Z,75.50
2022-08-01T08:09:37.399Z,75.10
2022-08-01T08:12:06.868Z,75.40
2022-08-01T08:14:34.925Z,74.80
2022-08-01T08:17:04.910Z,75.30
2022-08-01T08:20:35.709Z,76.40
2022-08-01T08:23:49.123Z,74.80
2022-08-01T08:26:16.449Z,75.60
2022-08-01T08:28:43.824Z,75.80
2022-08-01T08:31:25.741Z,76.10
2022-08-01T08:34:20.250Z,75.00
2022-08-01T08:36:49.085Z,74.10
2022-08-01T08:39:19.689Z,75.30
2022-08-01T08:41:49.079Z,74.50
2022-08-01T08:44:24.857Z,74.70
2022-08-01T08:46:53.523Z,73.70
2022-08-01T08:49:24.201Z,72.20
2022-08-01T08:54:38.138Z,73.70
2022-08-01T08:57:11.514Z,74.00
2022-08-01T08:59:44.622Z,73.70
2022-08-01T09:02:13.626Z,72.90
2022-08-01T09:05:03.075Z,73.90
2022-08-01T09:07:32.875Z,74.00
2022-08-01T09:10:31.695Z,72.80
2022-08-01T09:13:05.211Z,72.90
2022-08-01T09:15:44.621Z,72.80
2022-08-01T09:18:33.098Z,72.70
2022-08-01T09:24:16.800Z,74.50
2022-08-01T09:26:50.697Z,73.60
2022-08-01T09:36:36.118Z,72.50
2022-08-01T09:39:14.005Z,72.40
2022-08-01T09:42:37.793Z,73.50
2022-08-01T09:45:41.691Z,73.40
2022-08-01T09:48:13.013Z,73.10
2022-08-01T09:50:44.361Z,74.10
2022-08-01T09:53:30.273Z,73.00
2022-08-01T09:56:11.006Z,72.30
2022-08-01T09:59:01.694Z,73.50
2022-08-01T10:01:43.177Z,73.40
2022-08-01T10:04:19.960Z,73.70
2022-08-01T10:06:53.752Z,72.30
2022-08-01T10:09:40.889Z,73.00
2022-08-01T10:12:15.597Z,73.80
2022-08-01T10:14:46.372Z,73.90
2022-08-01T10:17:19.724Z,74.40
2022-08-01T10:19:51.454Z,72.50
2022-08-01T10:26:34.687Z,73.40
2022-08-01T10:29:03.623Z,72.80
2022-08-01T10:31:33.832Z,72.80
2022-08-01T10:34:01.971Z,72.80
2022-08-01T10:36:30.759Z,71.90
2022-08-01T10:38:58.642Z,71.60
2022-08-01T10:41:30.439Z,72.70
2022-08-01T10:43:58.449Z,72.00
2022-08-01T10:46:26.543Z,72.00
2022-08-01T10:49:03.858Z,73.60
2022-08-01T10:51:51.925Z,74.20
2022-08-01T10:54:19.530Z,73.80
2022-08-01T10:56:49.672Z,75.60
2022-08-01T10:59:50.652Z,75.00
2022-08-01T11:02:32.735Z,75.80
2022-08-01T11:05:14.243Z,75.30
2022-08-01T11:08:04.862Z,76.50
2022-08-01T11:10:43.964Z,75.60
2022-08-01T11:13:13.498Z,74.70
2022-08-01T11:15:50.478Z,74.90
2022-08-01T11:18:32.545Z,75.00
2022-08-01T11:21:56.321Z,76.60
2022-08-01T11:23:52.908Z,74.60
2022-08-01T11:26:29.295Z,75.10
2022-08-01T11:29:20.974Z,77.70
2022-08-01T11:31:51.200Z,76.20
2022-08-01T11:34:18.704Z,78.00
2022-08-01T11:37:03.391Z,77.10
2022-08-01T11:39:34.332Z,75.20
2022-08-01T11:42:20.697Z,76.40
2022-08-01T11:44:52.275Z,74.90
2022-08-01T11:47:39.937Z,75.00
2022-08-01T11:50:07.714Z,76.60
2022-08-01T11:52:37.232Z,75.60
2022-08-01T11:55:04.538Z,76.90
2022-08-01T11:57:38.922Z,74.10
2022-08-01T12:00:18.576Z,74.30
2022-08-01T12:02:47.768Z,75.60
2022-08-01T12:05:19.160Z,75.90
2022-08-01T12:07:51.542Z,75.30
2022-08-01T12:10:21.545Z,76.40
2022-08-01T12:13:00.449Z,75.10
2022-08-01T12:15:32.344Z,75.80
2022-08-01T12:18:05.876Z,77.70
2022-08-01T12:20:35.984Z,76.60
2022-08-01T12:26:42.176Z,76.60
2022-08-01T12:29:09.724Z,76.70
2022-08-01T12:31:37.128Z,76.30
2022-08-01T12:34:28.823Z,78.10
2022-08-01T12:36:57.869Z,76.20
2022-08-01T12:39:32.852Z,77.20
2022-08-01T12:42:00.069Z,77.30
2022-08-01T12:44:30.082Z,76.60
2022-08-01T12:47:00.593Z,75.80
2022-08-01T12:49:28.252Z,75.60
2022-08-01T12:51:57.236Z,75.50
2022-08-01T12:54:26.318Z,74.50
2022-08-01T12:56:57.962Z,74.90
2022-08-01T12:59:27.589Z,75.20
2022-08-01T13:01:59.381Z,75.80
2022-08-01T13:04:26.970Z,75.80
2022-08-01T13:06:55.332Z,75.40
2022-08-01T13:09:22.733Z,75.00
2022-08-01T13:11:58.911Z,74.10
2022-08-01T13:14:31.868Z,73.70
2022-08-01T13:17:02.316Z,73.40
2022-08-01T13:19:49.501Z,74.20
2022-08-01T13:22:16.930Z,74.20
2022-08-01T13:24:44.220Z,75.20
2022-08-01T13:27:21.819Z,75.00
2022-08-01T13:29:50.779Z,73.90
2022-08-01T13:32:28.499Z,73.20
2022-08-01T13:35:09.667Z,72.10
2022-08-01T13:37:52.387Z,74.00
2022-08-01T13:40:30.817Z,73.20
2022-08-01T13:43:18.075Z,73.40
2022-08-01T13:46:10.559Z,73.60
2022-08-01T13:49:05.165Z,72.30
2022-08-01T13:52:09.306Z,71.00
2022-08-01T13:54:37.349Z,71.30
2022-08-01T13:57:07.286Z,71.50
2022-08-01T13:59:34.633Z,73.20
2022-08-01T14:02:02.223Z,73.00
2022-08-01T14:04:29.725Z,73.70
2022-08-01T14:07:03.055Z,72.90
2022-08-01T14:09:34.626Z,73.10
2022-08-01T14:12:01.863Z,72.90
2022-08-01T14:14:29.790Z,73.10
2022-08-01T14:16:57.636Z,73.20
2022-08-01T14:19:38.704Z,73.20
2022-08-01T14:22:08.041Z,73.40
2022-08-01T14:24:35.601Z,72.60
2022-08-01T14:27:03.303Z,71.70
2022-08-01T14:30:02.868Z,71.90
2022-08-01T14:32:17.959Z,72.60
2022-08-01T14:34:49.597Z,72.90
2022-08-01T14:37:16.912Z,72.90
2022-08-01T14:39:53.517Z,71.90
2022-08-01T14:42:26.566Z,73.40
2022-08-01T14:44:54.290Z,72.40
2022-08-01T14:47:22.507Z,72.90
2022-08-01T14:49:51.172Z,72.70
2022-08-01T14:52:19.057Z,71.20
2022-08-01T14:54:46.385Z,71.50
2022-08-01T14:57:14.335Z,72.30
2022-08-01T14:59:41.840Z,72.30
2022-08-01T15:02:19.606Z,72.20
2022-08-01T15:04:55.986Z,72.20
2022-08-01T15:07:23.259Z,72.30
2022-08-01T15:10:11.162Z,71.40
2022-08-01T15:12:49.897Z,71.60
2022-08-01T15:15:17.901Z,72.00
2022-08-01T15:17:46.060Z,71.70
2022-08-01T15:20:13.552Z,71.90
2022-08-01T15:22:40.848Z,73.10
2022-08-01T15:25:40.513Z,72.30
2022-08-01T15:28:11.156Z,72.20
2022-08-01T15:30:39.054Z,72.10
2022-08-01T15:33:06.697Z,71.40
2022-08-01T15:35:34.094Z,72.10
2022-08-01T15:38:01.353Z,71.80
2022-08-01T15:40:29.359Z,71.20
2022-08-01T15:42:57.030Z,71.30
2022-08-01T15:45:48.397Z,72.10
2022-08-01T15:48:40.574Z,72.80
2022-08-01T15:51:07.891Z,72.70
2022-08-01T15:53:35.211Z,71.70
2022-08-01T15:56:02.545Z,72.40
2022-08-01T15:58:29.918Z,72.30
2022-08-01T16:00:57.372Z,72.30
2022-08-01T16:03:30.515Z,71.20
2022-08-01T16:05:57.841Z,71.50
2022-08-01T16:08:25.318Z,72.00
2022-08-01T16:10:52.632Z,72.10
2022-08-01T16:13:19.948Z,72.20
2022-08-01T16:15:47.203Z,72.00
2022-08-01T16:18:15.878Z,72.20
2022-08-01T16:23:51.423Z,72.20
2022-08-01T16:26:27.975Z,72.50
2022-08-01T16:28:55.858Z,72.20
2022-08-01T16:31:53.187Z,72.40
2022-08-01T16:34:10.399Z,72.50
2022-08-01T16:36:41.191Z,72.10
2022-08-01T16:39:08.539Z,72.20
2022-08-01T16:41:37.760Z,72.00
2022-08-01T16:44:06.511Z,72.10
2022-08-01T16:46:34.031Z,71.90
2022-08-01T16:49:01.641Z,71.80
2022-08-01T16:51:32.383Z,72.70
2022-08-01T16:54:00.764Z,72.50
2022-08-01T16:56:28.157Z,72.00
2022-08-01T16:58:55.559Z,72.20
2022-08-01T17:02:00.333Z,72.30
2022-08-01T17:04:12.616Z,72.70
2022-08-01T17:06:39.904Z,72.80
2022-08-01T17:09:07.327Z,72.70
2022-08-01T17:11:35.944Z,72.90
2022-08-01T17:14:03.480Z,72.80
2022-08-01T17:16:30.781Z,72.70
2022-08-01T17:18:58.051Z,72.90
2022-08-01T17:21:25.435Z,72.20
2022-08-01T17:23:53.196Z,72.40
2022-08-01T17:26:20.777Z,72.70
2022-08-01T17:29:12.887Z,72.80
2022-08-01T17:35:37.993Z,72.90
2022-08-01T17:38:05.320Z,72.50
2022-08-01T17:40:41.114Z,72.50
2022-08-01T17:43:09.088Z,72.60
2022-08-01T17:45:50.302Z,72.50
2022-08-01T17:48:19.405Z,72.80
2022-08-01T17:50:50.136Z,73.00
2022-08-01T17:53:20.986Z,72.90
2022-08-01T17:55:53.904Z,73.10
2022-08-01T17:58:52.273Z,73.70
2022-08-01T18:01:20.576Z,73.60
2022-08-01T18:03:48.624Z,73.50
2022-08-01T18:06:23.144Z,73.20
2022-08-01T18:08:55.380Z,73.00
2022-08-01T18:11:27.358Z,73.10
2022-08-01T18:13:56.203Z,73.20
2022-08-01T18:16:24.422Z,72.70
2022-08-01T18:19:18.304Z,72.80
2022-08-01T18:21:45.690Z,72.80
2022-08-01T18:24:13.275Z,72.90
2022-08-01T18:26:40.527Z,72.60
2022-08-01T18:29:08.299Z,72.60
2022-08-01T18:31:36.137Z,72.60
2022-08-01T18:34:03.581Z,72.80
2022-08-01T18:36:32.779Z,72.60
2022-08-01T18:39:05.480Z,72.60
2022-08-01T18:41:34.967Z,73.20
2022-08-01T18:44:07.666Z,73.00
2022-08-01T18:46:37.705Z,73.70
2022-08-01T18:49:06.718Z,73.00
2022-08-01T18:51:34.076Z,73.30
2022-08-01T18:54:01.446Z,73.30
2022-08-01T18:56:28.799Z,73.70
2022-08-01T18:58:56.185Z,73.60
2022-08-01T19:01:23.560Z,73.80
2022-08-01T19:03:50.916Z,74.00
2022-08-01T19:06:18.243Z,73.20
2022-08-01T19:08:46.141Z,73.00
2022-08-01T19:11:13.948Z,73.20
2022-08-01T19:13:42.491Z,74.70
2022-08-01T19:16:09.824Z,76.90
2022-08-01T19:18:40.984Z,78.10
2022-08-01T19:21:08.417Z,79.10
2022-08-01T19:23:54.388Z,79.30
2022-08-01T19:26:25.856Z,79.70
2022-08-01T19:28:58.365Z,80.00
2022-08-01T19:31:29.514Z,80.60
2022-08-01T19:33:58.096Z,81.40
2022-08-01T19:36:27.013Z,82.30
2022-08-01T19:39:16.962Z,83.00
2022-08-01T19:41:49.002Z,83.80
2022-08-01T19:44:18.803Z,83.90
2022-08-01T19:46:46.898Z,83.70
2022-08-01T19:49:16.410Z,83.70
2022-08-01T19:51:57.697Z,83.40
2022-08-01T19:54:30.633Z,83.20
2022-08-01T19:57:02.655Z,83.30
2022-08-01T19:59:33.060Z,83.20
2022-08-01T20:02:00.859Z,83.30
2022-08-01T20:04:29.325Z,83.30
2022-08-01T20:06:57.183Z,83.10
2022-08-01T20:09:24.785Z,83.20
2022-08-01T20:11:54.175Z,83.80
2022-08-01T20:14:24.492Z,83.50
2022-08-01T20:16:54.946Z,83.30
2022-08-01T20:19:24.666Z,83.50
2022-08-01T20:22:04.481Z,83.40
2022-08-01T20:24:43.432Z,83.10
2022-08-01T20:27:12.936Z,82.70
2022-08-01T20:29:41.677Z,82.50
2022-08-01T20:32:12.097Z,82.40
2022-08-01T20:34:39.903Z,81.70
2022-08-01T20:37:13.194Z,81.50
2022-08-01T20:39:43.879Z,81.70
2022-08-01T20:42:13.275Z,81.20
2022-08-01T20:44:41.269Z,81.30
2022-08-01T20:47:09.486Z,81.40
2022-08-01T20:49:37.926Z,81.30
2022-08-01T20:52:11.762Z,81.30
2022-08-01T20:54:44.253Z,81.20
2022-08-01T20:57:53.815Z,81.10
2022-08-01T21:00:45.229Z,81.10
2022-08-01T21:03:18.900Z,81.20
2022-08-01T21:06:00.055Z,81.50
2022-08-01T21:08:38.454Z,81.30
2022-08-01T21:11:07.400Z,81.50
2022-08-01T21:13:40.588Z,81.40
2022-08-01T21:16:23.731Z,81.60
2022-08-01T21:19:21.614Z,81.50
2022-08-01T21:21:58.081Z,81.20
2022-08-01T21:24:32.755Z,81.20
2022-08-01T21:27:01.553Z,81.10
2022-08-01T21:29:32.479Z,81.10
2022-08-01T21:32:11.830Z,81.10
2022-08-01T21:34:40.325Z,81.10
2022-08-01T21:37:09.214Z,80.60
2022-08-01T21:39:38.042Z,80.50
2022-08-01T21:42:09.127Z,80.60
2022-08-01T21:44:39.742Z,80.40
2022-08-01T21:47:11.811Z,80.50
2022-08-01T21:49:41.490Z,80.70
2022-08-01T21:52:23.985Z,80.50
2022-08-01T21:55:17.181Z,81.20
2022-08-01T21:57:55.557Z,80.40
2022-08-01T22:00:25.539Z,80.30
2022-08-01T22:03:13.756Z,80.50
2022-08-01T22:05:50.168Z,80.40
2022-08-01T22:08:33.411Z,80.30
2022-08-01T22:11:07.089Z,80.00
2022-08-01T22:13:35.779Z,80.20
2022-08-01T22:16:05.102Z,80.20
2022-08-01T22:18:33.925Z,80.20
2022-08-01T22:21:02.797Z,80.10
2022-08-01T22:23:30.964Z,80.00
2022-08-01T22:25:59.713Z,80.00
2022-08-01T22:28:27.308Z,80.10
2022-08-01T22:30:54.771Z,80.00
2022-08-01T22:33:22.743Z,79.60
2022-08-01T22:35:52.530Z,79.30
2022-08-01T22:38:22.859Z,79.10
2022-08-01T22:40:55.902Z,79.10
2022-08-01T22:43:47.836Z,79.20
2022-08-01T22:46:17.435Z,79.10
2022-08-01T22:48:50.287Z,79.40
2022-08-01T22:51:54.604Z,79.50
2022-08-01T22:54:38.360Z,79.70
2022-08-01T22:57:16.656Z,79.70
2022-08-01T23:00:06.305Z,79.60
2022-08-01T23:02:46.842Z,80.10
2022-08-01T23:05:36.589Z,80.60
2022-08-01T23:08:04.892Z,81.50
2022-08-01T23:10:38.201Z,81.10
2022-08-01T23:13:06.953Z,81.40
2022-08-01T23:15:34.859Z,81.80
2022-08-01T23:18:04.678Z,81.90
2022-08-01T23:20:34.629Z,82.20
2022-08-01T23:23:04.288Z,82.00
2022-08-01T23:25:33.474Z,82.10
2022-08-01T23:28:06.005Z,82.60
2022-08-01T23:30:35.316Z,83.00
2022-08-01T23:33:03.372Z,82.80
2022-08-01T23:35:31.730Z,81.60
2022-08-01T23:38:03.411Z,81.80
2022-08-01T23:40:37.505Z,82.10
2022-08-01T23:43:06.504Z,81.80
2022-08-01T23:46:04.276Z,82.40
2022-08-01T23:48:52.391Z,81.70
2022-08-01T23:51:24.562Z,82.40
2022-08-01T23:53:55.381Z,81.70
2022-08-01T23:56:25.263Z,82.20
2022-08-01T23:58:52.963Z,81.70
